sensor_id;sensor_type;location;lat;lon;timestamp;P1;durP1;ratioP1;P2;durP2;ratioP2
8171;SDS011;4127;47.908;10.850;2023-04-03T00:00:40;9.57;;;8.43;;
8171;SDS011;4127;47.908;10.850;2023-04-03T00:03:07;9.47;;;8.53;;
8171;SDS011;4127;47.908;10.850;2023-04-03T00:05:34;8.73;;;7.70;;
8171;SDS011;4127;47.908;10.850;2023-04-03T00:08:01;8.67;;;7.87;;
8171;SDS011;4127;47.908;10.850;2023-04-03T00:10:28;8.50;;;7.70;;
8171;SDS011;4127;47.908;10.850;2023-04-03T00:12:55;8.60;;;7.80;;
8171;SDS011;4127;47.908;10.850;2023-04-03T00:15:21;7.90;;;7.10;;
8171;SDS011;4127;47.908;10.850;2023-04-03T00:17:48;8.57;;;7.63;;
8171;SDS011;4127;47.908;10.850;2023-04-03T00:20:15;7.80;;;7.10;;
8171;SDS011;4127;47.908;10.850;2023-04-03T00:22:42;8.93;;;8.03;;
8171;SDS011;4127;47.908;10.850;2023-04-03T00:25:09;8.77;;;7.87;;
8171;SDS011;4127;47.908;10.850;2023-04-03T00:27:37;8.93;;;8.03;;
8171;SDS011;4127;47.908;10.850;2023-04-03T00:30:06;8.70;;;7.53;;
8171;SDS011;4127;47.908;10.850;2023-04-03T00:32:34;9.77;;;8.77;;
8171;SDS011;4127;47.908;10.850;2023-04-03T00:35:01;10.23;;;7.97;;
8171;SDS011;4127;47.908;10.850;2023-04-03T00:37:28;8.23;;;7.43;;
8171;SDS011;4127;47.908;10.850;2023-04-03T00:39:55;9.43;;;8.20;;
8171;SDS011;4127;47.908;10.850;2023-04-03T00:42:22;10.33;;;8.93;;
8171;SDS011;4127;47.908;10.850;2023-04-03T00:47:19;8.20;;;7.40;;
8171;SDS011;4127;47.908;10.850;2023-04-03T00:49:45;9.17;;;8.30;;
8171;SDS011;4127;47.908;10.850;2023-04-03T00:52:14;9.43;;;8.57;;
8171;SDS011;4127;47.908;10.850;2023-04-03T00:54:44;8.23;;;7.50;;
8171;SDS011;4127;47.908;10.850;2023-04-03T00:57:12;9.50;;;8.00;;
8171;SDS011;4127;47.908;10.850;2023-04-03T00:59:43;9.50;;;8.50;;
8171;SDS011;4127;47.908;10.850;2023-04-03T01:02:15;14.33;;;10.70;;
8171;SDS011;4127;47.908;10.850;2023-04-03T01:04:43;11.67;;;9.77;;
8171;SDS011;4127;47.908;10.850;2023-04-03T01:07:10;9.33;;;8.43;;
8171;SDS011;4127;47.908;10.850;2023-04-03T01:09:40;11.47;;;8.40;;
8171;SDS011;4127;47.908;10.850;2023-04-03T01:15:14;9.63;;;8.60;;
8171;SDS011;4127;47.908;10.850;2023-04-03T01:17:47;8.67;;;7.87;;
8171;SDS011;4127;47.908;10.850;2023-04-03T01:28:12;9.17;;;8.27;;
8171;SDS011;4127;47.908;10.850;2023-04-03T01:30:44;9.57;;;8.67;;
8171;SDS011;4127;47.908;10.850;2023-04-03T01:33:19;9.73;;;8.77;;
8171;SDS011;4127;47.908;10.850;2023-04-03T01:35:45;8.73;;;7.70;;
8171;SDS011;4127;47.908;10.850;2023-04-03T01:38:12;10.37;;;8.80;;
8171;SDS011;4127;47.908;10.850;2023-04-03T01:40:39;10.27;;;9.20;;
8171;SDS011;4127;47.908;10.850;2023-04-03T01:43:06;9.57;;;8.40;;
8171;SDS011;4127;47.908;10.850;2023-04-03T01:45:33;9.60;;;8.57;;
8171;SDS011;4127;47.908;10.850;2023-04-03T01:48:00;9.70;;;8.80;;
8171;SDS011;4127;47.908;10.850;2023-04-03T01:50:27;9.93;;;8.83;;
8171;SDS011;4127;47.908;10.850;2023-04-03T01:52:53;9.10;;;8.20;;
8171;SDS011;4127;47.908;10.850;2023-04-03T01:55:20;8.67;;;7.77;;
8171;SDS011;4127;47.908;10.850;2023-04-03T01:57:47;8.87;;;7.97;;
8171;SDS011;4127;47.908;10.850;2023-04-03T02:00:15;8.20;;;7.03;;
8171;SDS011;4127;47.908;10.850;2023-04-03T02:02:42;8.73;;;7.87;;
8171;SDS011;4127;47.908;10.850;2023-04-03T02:05:09;9.57;;;7.63;;
8171;SDS011;4127;47.908;10.850;2023-04-03T02:07:36;10.57;;;8.17;;
8171;SDS011;4127;47.908;10.850;2023-04-03T02:10:02;10.20;;;9.20;;
8171;SDS011;4127;47.908;10.850;2023-04-03T02:12:30;9.17;;;8.27;;
8171;SDS011;4127;47.908;10.850;2023-04-03T02:14:56;8.83;;;7.97;;
8171;SDS011;4127;47.908;10.850;2023-04-03T02:17:23;9.50;;;8.50;;
8171;SDS011;4127;47.908;10.850;2023-04-03T02:19:50;10.10;;;9.13;;
8171;SDS011;4127;47.908;10.850;2023-04-03T02:22:17;9.00;;;8.03;;
8171;SDS011;4127;47.908;10.850;2023-04-03T02:24:44;9.37;;;8.30;;
8171;SDS011;4127;47.908;10.850;2023-04-03T02:27:11;9.33;;;8.30;;
8171;SDS011;4127;47.908;10.850;2023-04-03T02:29:38;8.77;;;7.60;;
8171;SDS011;4127;47.908;10.850;2023-04-03T02:32:04;9.23;;;8.10;;
8171;SDS011;4127;47.908;10.850;2023-04-03T02:34:31;9.67;;;8.77;;
8171;SDS011;4127;47.908;10.850;2023-04-03T02:36:58;10.93;;;8.90;;
8171;SDS011;4127;47.908;10.850;2023-04-03T02:39:25;9.97;;;8.87;;
8171;SDS011;4127;47.908;10.850;2023-04-03T02:41:52;9.83;;;8.90;;
8171;SDS011;4127;47.908;10.850;2023-04-03T02:44:18;10.93;;;8.93;;
8171;SDS011;4127;47.908;10.850;2023-04-03T02:46:45;9.60;;;8.63;;
8171;SDS011;4127;47.908;10.850;2023-04-03T02:49:12;9.77;;;8.80;;
8171;SDS011;4127;47.908;10.850;2023-04-03T02:51:39;9.10;;;8.20;;
8171;SDS011;4127;47.908;10.850;2023-04-03T02:54:06;9.93;;;8.57;;
8171;SDS011;4127;47.908;10.850;2023-04-03T02:56:33;8.67;;;7.77;;
8171;SDS011;4127;47.908;10.850;2023-04-03T02:59:00;9.20;;;8.23;;
8171;SDS011;4127;47.908;10.850;2023-04-03T03:01:27;9.77;;;8.77;;
8171;SDS011;4127;47.908;10.850;2023-04-03T03:03:58;10.37;;;9.23;;
8171;SDS011;4127;47.908;10.850;2023-04-03T03:06:26;11.90;;;9.83;;
8171;SDS011;4127;47.908;10.850;2023-04-03T03:08:53;10.33;;;9.33;;
8171;SDS011;4127;47.908;10.850;2023-04-03T03:11:20;8.00;;;7.30;;
8171;SDS011;4127;47.908;10.850;2023-04-03T03:13:47;8.87;;;7.93;;
8171;SDS011;4127;47.908;10.850;2023-04-03T03:16:14;7.87;;;7.17;;
8171;SDS011;4127;47.908;10.850;2023-04-03T03:18:41;9.20;;;8.27;;
8171;SDS011;4127;47.908;10.850;2023-04-03T03:21:08;8.40;;;7.60;;
8171;SDS011;4127;47.908;10.850;2023-04-03T03:23:36;8.73;;;7.83;;
8171;SDS011;4127;47.908;10.850;2023-04-03T03:26:07;8.83;;;7.90;;
8171;SDS011;4127;47.908;10.850;2023-04-03T03:28:35;8.70;;;7.80;;
8171;SDS011;4127;47.908;10.850;2023-04-03T03:31:03;8.50;;;7.70;;
8171;SDS011;4127;47.908;10.850;2023-04-03T03:33:30;10.20;;;7.47;;
8171;SDS011;4127;47.908;10.850;2023-04-03T03:35:57;9.07;;;8.10;;
8171;SDS011;4127;47.908;10.850;2023-04-03T03:38:24;9.00;;;8.00;;
8171;SDS011;4127;47.908;10.850;2023-04-03T03:40:51;8.37;;;6.97;;
8171;SDS011;4127;47.908;10.850;2023-04-03T03:43:18;8.53;;;7.73;;
8171;SDS011;4127;47.908;10.850;2023-04-03T03:45:49;7.77;;;7.07;;
8171;SDS011;4127;47.908;10.850;2023-04-03T03:48:18;7.30;;;6.70;;
8171;SDS011;4127;47.908;10.850;2023-04-03T03:50:45;7.63;;;6.87;;
8171;SDS011;4127;47.908;10.850;2023-04-03T03:53:12;7.23;;;6.53;;
8171;SDS011;4127;47.908;10.850;2023-04-03T03:55:39;7.30;;;6.63;;
8171;SDS011;4127;47.908;10.850;2023-04-03T03:58:06;7.63;;;6.70;;
8171;SDS011;4127;47.908;10.850;2023-04-03T04:00:33;7.33;;;6.63;;
8171;SDS011;4127;47.908;10.850;2023-04-03T04:02:59;7.27;;;6.63;;
8171;SDS011;4127;47.908;10.850;2023-04-03T04:05:27;6.57;;;5.97;;
8171;SDS011;4127;47.908;10.850;2023-04-03T04:07:53;8.10;;;7.30;;
8171;SDS011;4127;47.908;10.850;2023-04-03T04:10:20;7.30;;;6.60;;
8171;SDS011;4127;47.908;10.850;2023-04-03T04:12:47;6.80;;;6.20;;
8171;SDS011;4127;47.908;10.850;2023-04-03T04:15:15;7.00;;;6.30;;
8171;SDS011;4127;47.908;10.850;2023-04-03T04:17:42;6.83;;;6.13;;
8171;SDS011;4127;47.908;10.850;2023-04-03T04:20:09;7.27;;;6.57;;
8171;SDS011;4127;47.908;10.850;2023-04-03T04:22:37;6.80;;;6.10;;
8171;SDS011;4127;47.908;10.850;2023-04-03T04:25:05;6.80;;;6.20;;
8171;SDS011;4127;47.908;10.850;2023-04-03T18:21:32;3.10;;;2.47;;
